sensor_id;sensor_type;location;lat;lon;timestamp;pressure;altitude;pressure_sealevel;temperature;humidity
5062;BME280;2351;50.812;12.872;2023-08-20T06:34:45;98441.75;;;23.19;100.00
5062;BME280;2351;50.812;12.872;2023-08-20T06:37:18;98439.97;;;23.33;100.00
5062;BME280;2351;50.812;12.872;2023-08-20T06:39:53;98447.28;;;23.45;100.00
5062;BME280;2351;50.812;12.872;2023-08-20T06:42:24;98448.31;;;23.51;100.00
5062;BME280;2351;50.812;12.872;2023-08-20T06:44:56;98447.94;;;23.61;100.00
5062;BME280;2351;50.812;12.872;2023-08-20T06:47:28;98454.59;;;23.65;100.00
5062;BME280;2351;50.812;12.872;2023-08-20T06:50:01;98460.41;;;23.69;100.00
5062;BME280;2351;50.812;12.872;2023-08-20T06:52:33;98458.97;;;23.66;100.00
5062;BME280;2351;50.812;12.872;2023-08-20T06:55:05;98461.03;;;23.71;100.00
5062;BME280;2351;50.812;12.872;2023-08-20T06:57:38;98463.75;;;23.84;100.00
5062;BME280;2351;50.812;12.872;2023-08-20T07:00:10;98465.00;;;23.95;100.00
5062;BME280;2351;50.812;12.872;2023-08-20T07:02:41;98463.56;;;23.86;100.00
5062;BME280;2351;50.812;12.872;2023-08-20T07:05:15;98465.84;;;23.96;100.00
5062;BME280;2351;50.812;12.872;2023-08-20T07:07:49;98466.94;;;24.01;100.00
5062;BME280;2351;50.812;12.872;2023-08-20T07:10:21;98460.50;;;24.16;100.00
5062;BME280;2351;50.812;12.872;2023-08-20T07:12:53;98461.09;;;24.18;100.00
5062;BME280;2351;50.812;12.872;2023-08-20T07:15:24;98457.38;;;24.12;100.00
5062;BME280;2351;50.812;12.872;2023-08-20T07:17:56;98453.84;;;24.12;100.00
5062;BME280;2351;50.812;12.872;2023-08-20T07:20:29;98455.28;;;24.14;100.00
5062;BME280;2351;50.812;12.872;2023-08-20T07:23:00;98458.41;;;24.18;100.00
5062;BME280;2351;50.812;12.872;2023-08-20T07:25:32;98464.44;;;24.13;100.00
5062;BME280;2351;50.812;12.872;2023-08-20T07:28:04;98465.06;;;24.15;100.00
5062;BME280;2351;50.812;12.872;2023-08-20T07:30:36;98459.88;;;24.14;100.00
5062;BME280;2351;50.812;12.872;2023-08-20T07:33:08;98474.22;;;24.08;100.00
5062;BME280;2351;50.812;12.872;2023-08-20T07:35:41;98472.56;;;24.06;100.00
5062;BME280;2351;50.812;12.872;2023-08-20T07:38:12;98475.66;;;24.17;100.00
5062;BME280;2351;50.812;12.872;2023-08-20T07:40:44;98464.84;;;24.10;100.00
5062;BME280;2351;50.812;12.872;2023-08-20T07:43:16;98468.41;;;24.11;100.00
5062;BME280;2351;50.812;12.872;2023-08-20T07:45:47;98462.16;;;24.17;100.00
5062;BME280;2351;50.812;12.872;2023-08-20T07:48:19;98467.16;;;24.27;100.00
5062;BME280;2351;50.812;12.872;2023-08-20T07:50:52;98468.00;;;24.20;100.00
5062;BME280;2351;50.812;12.872;2023-08-20T07:53:24;98462.59;;;24.20;100.00
5062;BME280;2351;50.812;12.872;2023-08-20T07:55:56;98468.19;;;24.26;100.00
5062;BME280;2351;50.812;12.872;2023-08-20T07:58:27;98461.75;;;24.33;100.00
5062;BME280;2351;50.812;12.872;2023-08-20T08:00:59;98469.22;;;24.38;100.00
5062;BME280;2351;50.812;12.872;2023-08-20T08:03:31;98467.34;;;24.39;99.14
5062;BME280;2351;50.812;12.872;2023-08-20T08:06:04;98470.06;;;24.32;99.57
5062;BME280;2351;50.812;12.872;2023-08-20T08:08:36;98482.53;;;24.26;100.00
5062;BME280;2351;50.812;12.872;2023-08-20T08:11:07;98480.88;;;24.12;100.00
5062;BME280;2351;50.812;12.872;2023-08-20T08:13:39;98483.19;;;24.15;100.00
5062;BME280;2351;50.812;12.872;2023-08-20T08:16:11;98481.69;;;24.19;100.00
5062;BME280;2351;50.812;12.872;2023-08-20T08:18:43;98486.06;;;24.13;100.00
5062;BME280;2351;50.812;12.872;2023-08-20T08:21:16;98488.78;;;24.06;100.00
5062;BME280;2351;50.812;12.872;2023-08-20T08:23:48;98490.03;;;24.24;100.00
5062;BME280;2351;50.812;12.872;2023-08-20T08:26:20;98500.22;;;24.22;99.90
5062;BME280;2351;50.812;12.872;2023-08-20T08:28:52;98497.50;;;24.02;99.13
5062;BME280;2351;50.812;12.872;2023-08-20T08:31:24;98500.59;;;23.92;100.00
5062;BME280;2351;50.812;12.872;2023-08-20T08:33:56;98500.81;;;23.97;100.00
5062;BME280;2351;50.812;12.872;2023-08-20T08:36:29;98495.44;;;24.04;100.00
5062;BME280;2351;50.812;12.872;2023-08-20T08:39:01;98496.47;;;24.10;100.00
5062;BME280;2351;50.812;12.872;2023-08-20T08:41:35;98497.09;;;24.18;99.86
5062;BME280;2351;50.812;12.872;2023-08-20T08:44:10;98491.69;;;24.25;99.84
5062;BME280;2351;50.812;12.872;2023-08-20T08:46:42;98493.13;;;24.21;99.12
5062;BME280;2351;50.812;12.872;2023-08-20T08:49:15;98478.38;;;24.30;98.72
5062;BME280;2351;50.812;12.872;2023-08-20T08:51:48;98487.94;;;24.53;99.16
5062;BME280;2351;50.812;12.872;2023-08-20T08:54:22;98479.63;;;24.75;98.92
5062;BME280;2351;50.812;12.872;2023-08-20T08:56:55;98489.59;;;24.81;96.62
5062;BME280;2351;50.812;12.872;2023-08-20T08:59:27;98501.66;;;24.85;95.17
5062;BME280;2351;50.812;12.872;2023-08-20T09:01:59;98509.13;;;24.83;93.08
5062;BME280;2351;50.812;12.872;2023-08-20T09:04:31;98513.75;;;24.69;94.29
5062;BME280;2351;50.812;12.872;2023-08-20T09:07:05;98524.53;;;24.62;95.40
5062;BME280;2351;50.812;12.872;2023-08-20T09:09:36;98524.56;;;24.42;93.66
5062;BME280;2351;50.812;12.872;2023-08-20T09:12:12;98525.41;;;24.56;95.17
5062;BME280;2351;50.812;12.872;2023-08-20T09:14:46;98526.66;;;24.60;95.05
5062;BME280;2351;50.812;12.872;2023-08-20T09:17:18;98525.81;;;24.53;94.85
5062;BME280;2351;50.812;12.872;2023-08-20T09:19:51;98523.31;;;24.45;95.22
5062;BME280;2351;50.812;12.872;2023-08-20T09:22:26;98527.06;;;24.44;95.91
5062;BME280;2351;50.812;12.872;2023-08-20T09:24:58;98527.50;;;24.47;95.73
5062;BME280;2351;50.812;12.872;2023-08-20T09:27:39;98531.63;;;24.57;97.08
5062;BME280;2351;50.812;12.872;2023-08-20T09:30:17;98534.94;;;24.65;94.86
5062;BME280;2351;50.812;12.872;2023-08-20T09:33:03;98535.81;;;24.66;94.23
5062;BME280;2351;50.812;12.872;2023-08-20T09:35:35;98532.88;;;24.61;93.70
5062;BME280;2351;50.812;12.872;2023-08-20T09:38:08;98530.56;;;24.64;95.70
5062;BME280;2351;50.812;12.872;2023-08-20T09:40:40;98523.53;;;24.84;93.26
5062;BME280;2351;50.812;12.872;2023-08-20T09:43:13;98521.84;;;24.89;93.59
5062;BME280;2351;50.812;12.872;2023-08-20T09:45:47;98514.97;;;24.93;93.65
5062;BME280;2351;50.812;12.872;2023-08-20T09:48:19;98516.16;;;25.11;90.95
5062;BME280;2351;50.812;12.872;2023-08-20T09:50:53;98525.72;;;25.20;91.25
5062;BME280;2351;50.812;12.872;2023-08-20T09:53:34;98519.44;;;25.33;89.47
5062;BME280;2351;50.812;12.872;2023-08-20T09:56:10;98516.09;;;25.31;88.44
5062;BME280;2351;50.812;12.872;2023-08-20T09:58:48;98511.91;;;25.42;88.90
5062;BME280;2351;50.812;12.872;2023-08-20T10:01:20;98522.22;;;25.65;89.65
5062;BME280;2351;50.812;12.872;2023-08-20T10:03:52;98514.91;;;25.73;87.58
5062;BME280;2351;50.812;12.872;2023-08-20T10:06:24;98508.00;;;25.77;86.90
5062;BME280;2351;50.812;12.872;2023-08-20T10:08:59;98502.16;;;25.73;86.83
5062;BME280;2351;50.812;12.872;2023-08-20T10:11:31;98508.06;;;25.70;86.04
5062;BME280;2351;50.812;12.872;2023-08-20T10:14:07;98490.56;;;25.66;86.88
5062;BME280;2351;50.812;12.872;2023-08-20T10:16:39;98497.22;;;25.63;85.95
5062;BME280;2351;50.812;12.872;2023-08-20T10:19:11;98493.56;;;25.83;87.14
5062;BME280;2351;50.812;12.872;2023-08-20T10:21:44;98490.41;;;25.93;86.00
5062;BME280;2351;50.812;12.872;2023-08-20T10:24:18;98488.28;;;25.95;85.19
5062;BME280;2351;50.812;12.872;2023-08-20T10:27:07;98467.50;;;25.89;85.45
5062;BME280;2351;50.812;12.872;2023-08-20T10:29:40;98469.41;;;26.07;85.98
5062;BME280;2351;50.812;12.872;2023-08-20T10:32:12;98472.72;;;26.15;84.70
5062;BME280;2351;50.812;12.872;2023-08-20T10:34:50;98477.28;;;26.22;84.61
5062;BME280;2351;50.812;12.872;2023-08-20T10:37:28;98465.66;;;26.40;84.24
5062;BME280;2351;50.812;12.872;2023-08-20T10:40:02;98468.00;;;26.36;82.76
5062;BME280;2351;50.812;12.872;2023-08-20T10:42:41;98474.34;;;26.23;82.03
5062;BME280;2351;50.812;12.872;2023-08-20T10:45:15;98476.28;;;26.16;84.15
5062;BME280;2351;50.812;12.872;2023-08-20T10:47:48;98475.03;;;26.37;84.78
5062;BME280;2351;50.812;12.872;2023-08-20T10:50:19;98467.00;;;26.49;83.55
5062;BME280;2351;50.812;12.872;2023-08-20T10:52:55;98470.16;;;26.71;84.12
5062;BME280;2351;50.812;12.872;2023-08-20T10:55:28;98466.75;;;26.76;81.00
5062;BME280;2351;50.812;12.872;2023-08-20T10:58:04;98463.66;;;26.54;80.36
5062;BME280;2351;50.812;12.872;2023-08-20T11:00:36;98464.38;;;26.61;81.83
5062;BME280;2351;50.812;12.872;2023-08-20T11:03:08;98468.16;;;26.60;81.28
5062;BME280;2351;50.812;12.872;2023-08-20T11:05:40;98460.34;;;26.70;80.96
5062;BME280;2351;50.812;12.872;2023-08-20T11:08:12;98457.97;;;26.81;80.82
5062;BME280;2351;50.812;12.872;2023-08-20T11:10:46;98459.00;;;26.80;80.32
5062;BME280;2351;50.812;12.872;2023-08-20T11:13:22;98451.41;;;26.88;80.13
5062;BME280;2351;50.812;12.872;2023-08-20T11:15:54;98449.38;;;27.02;79.82
5062;BME280;2351;50.812;12.872;2023-08-20T11:18:26;98453.75;;;27.22;79.87
5062;BME280;2351;50.812;12.872;2023-08-20T11:20:58;98454.91;;;27.26;76.55
5062;BME280;2351;50.812;12.872;2023-08-20T11:23:31;98444.19;;;27.31;78.41
5062;BME280;2351;50.812;12.872;2023-08-20T11:26:04;98441.78;;;27.42;78.65
5062;BME280;2351;50.812;12.872;2023-08-20T11:28:38;98444.50;;;27.42;77.38
5062;BME280;2351;50.812;12.872;2023-08-20T11:31:09;98443.41;;;27.61;78.63
5062;BME280;2351;50.812;12.872;2023-08-20T11:33:42;98444.75;;;27.83;76.84
5062;BME280;2351;50.812;12.872;2023-08-20T11:36:15;98453.06;;;27.88;76.57
5062;BME280;2351;50.812;12.872;2023-08-20T11:38:49;98444.91;;;28.00;76.14
5062;BME280;2351;50.812;12.872;2023-08-20T11:41:25;98444.56;;;27.96;73.83
5062;BME280;2351;50.812;12.872;2023-08-20T11:43:56;98453.19;;;27.93;74.68
5062;BME280;2351;50.812;12.872;2023-08-20T11:46:28;98450.47;;;27.93;76.49
5062;BME280;2351;50.812;12.872;2023-08-20T11:49:01;98444.50;;;28.15;75.32
5062;BME280;2351;50.812;12.872;2023-08-20T11:51:38;98444.97;;;28.11;74.24
5062;BME280;2351;50.812;12.872;2023-08-20T11:54:11;98449.66;;;28.04;74.43
5062;BME280;2351;50.812;12.872;2023-08-20T11:56:46;98444.38;;;28.21;75.42
5062;BME280;2351;50.812;12.872;2023-08-20T11:59:22;98441.19;;;28.24;74.73
5062;BME280;2351;50.812;12.872;2023-08-20T12:01:56;98446.91;;;28.47;74.86
5062;BME280;2351;50.812;12.872;2023-08-20T12:04:30;98440.50;;;28.77;74.66
5062;BME280;2351;50.812;12.872;2023-08-20T12:07:04;98426.25;;;28.98;73.47
5062;BME280;2351;50.812;12.872;2023-08-20T12:09:36;98429.69;;;28.94;72.03
5062;BME280;2351;50.812;12.872;2023-08-20T12:12:09;98427.44;;;29.03;71.84
5062;BME280;2351;50.812;12.872;2023-08-20T12:14:41;98424.03;;;28.83;70.88
5062;BME280;2351;50.812;12.872;2023-08-20T12:17:16;98421.28;;;28.71;71.02
5062;BME280;2351;50.812;12.872;2023-08-20T12:19:48;98424.25;;;28.70;71.57
5062;BME280;2351;50.812;12.872;2023-08-20T12:22:20;98420.16;;;28.79;71.74
5062;BME280;2351;50.812;12.872;2023-08-20T12:24:52;98416.66;;;28.96;71.99
5062;BME280;2351;50.812;12.872;2023-08-20T12:27:25;98412.13;;;29.13;71.68
5062;BME280;2351;50.812;12.872;2023-08-20T12:29:58;98410.75;;;29.28;71.11
5062;BME280;2351;50.812;12.872;2023-08-20T12:32:29;98408.72;;;29.35;71.25
5062;BME280;2351;50.812;12.872;2023-08-20T12:35:01;98410.56;;;29.18;69.57
5062;BME280;2351;50.812;12.872;2023-08-20T12:37:34;98407.91;;;29.35;70.98
5062;BME280;2351;50.812;12.872;2023-08-20T12:40:07;98399.50;;;29.36;69.87
5062;BME280;2351;50.812;12.872;2023-08-20T12:42:43;98402.59;;;29.57;70.21
5062;BME280;2351;50.812;12.872;2023-08-20T12:45:15;98397.19;;;29.45;67.28
5062;BME280;2351;50.812;12.872;2023-08-20T12:47:46;98399.06;;;29.15;69.74
5062;BME280;2351;50.812;12.872;2023-08-20T12:50:18;98396.53;;;29.26;69.45
5062;BME280;2351;50.812;12.872;2023-08-20T12:52:50;98386.31;;;29.45;69.96
5062;BME280;2351;50.812;12.872;2023-08-20T12:55:22;98383.41;;;29.52;69.07
5062;BME280;2351;50.812;12.872;2023-08-20T12:57:56;98379.81;;;29.34;68.79
5062;BME280;2351;50.812;12.872;2023-08-20T13:00:28;98381.59;;;29.40;69.07
5062;BME280;2351;50.812;12.872;2023-08-20T13:03:00;98379.53;;;29.48;70.25
5062;BME280;2351;50.812;12.872;2023-08-20T13:05:33;98371.59;;;29.46;68.20
5062;BME280;2351;50.812;12.872;2023-08-20T13:08:06;98373.00;;;29.49;68.62
5062;BME280;2351;50.812;12.872;2023-08-20T13:10:39;98370.78;;;29.63;68.44
5062;BME280;2351;50.812;12.872;2023-08-20T13:13:13;98359.72;;;29.69;69.11
5062;BME280;2351;50.812;12.872;2023-08-20T13:15:47;98360.25;;;29.66;67.53
5062;BME280;2351;50.812;12.872;2023-08-20T13:18:20;98362.88;;;29.78;67.88
5062;BME280;2351;50.812;12.872;2023-08-20T13:20:58;98363.56;;;30.02;67.97
5062;BME280;2351;50.812;12.872;2023-08-20T13:23:30;98366.16;;;29.80;65.24
5062;BME280;2351;50.812;12.872;2023-08-20T13:26:02;98357.44;;;29.78;67.53
5062;BME280;2351;50.812;12.872;2023-08-20T13:28:36;98357.16;;;30.14;67.80
5062;BME280;2351;50.812;12.872;2023-08-20T13:31:07;98350.13;;;30.18;66.37
5062;BME280;2351;50.812;12.872;2023-08-20T13:33:39;98346.03;;;30.15;65.44
5062;BME280;2351;50.812;12.872;2023-08-20T13:36:11;98346.03;;;30.15;65.63
5062;BME280;2351;50.812;12.872;2023-08-20T13:38:43;98346.34;;;30.19;65.45
5062;BME280;2351;50.812;12.872;2023-08-20T13:41:15;98350.81;;;30.08;64.81
5062;BME280;2351;50.812;12.872;2023-08-20T13:43:48;98354.69;;;29.95;65.05
5062;BME280;2351;50.812;12.872;2023-08-20T13:46:20;98350.06;;;29.96;66.31
5062;BME280;2351;50.812;12.872;2023-08-20T13:48:52;98340.88;;;30.02;66.23
5062;BME280;2351;50.812;12.872;2023-08-20T13:51:24;98345.41;;;30.30;66.30
5062;BME280;2351;50.812;12.872;2023-08-20T13:53:56;98338.00;;;30.48;64.50
5062;BME280;2351;50.812;12.872;2023-08-20T13:56:28;98337.91;;;30.60;64.29
5062;BME280;2351;50.812;12.872;2023-08-20T13:59:01;98333.91;;;30.68;63.82
5062;BME280;2351;50.812;12.872;2023-08-20T14:01:33;98332.19;;;30.61;63.49
5062;BME280;2351;50.812;12.872;2023-08-20T14:04:05;98329.22;;;30.46;63.83
5062;BME280;2351;50.812;12.872;2023-08-20T14:06:37;98327.09;;;30.70;63.95
5062;BME280;2351;50.812;12.872;2023-08-20T14:09:08;98329.25;;;30.90;64.30
5062;BME280;2351;50.812;12.872;2023-08-20T14:11:40;98325.50;;;30.74;62.05
5062;BME280;2351;50.812;12.872;2023-08-20T14:14:13;98328.16;;;30.47;63.62
5062;BME280;2351;50.812;12.872;2023-08-20T14:16:45;98328.47;;;30.28;64.14
5062;BME280;2351;50.812;12.872;2023-08-20T14:19:17;98319.59;;;30.38;64.31
5062;BME280;2351;50.812;12.872;2023-08-20T14:21:49;98322.03;;;30.17;64.55
5062;BME280;2351;50.812;12.872;2023-08-20T14:24:22;98322.31;;;29.99;65.16
5062;BME280;2351;50.812;12.872;2023-08-20T14:26:57;98321.84;;;30.24;64.70
5062;BME280;2351;50.812;12.872;2023-08-20T14:29:31;98318.59;;;30.67;65.25
5062;BME280;2351;50.812;12.872;2023-08-20T14:32:03;98314.28;;;30.71;63.46
5062;BME280;2351;50.812;12.872;2023-08-20T14:34:35;98319.25;;;30.74;64.07
5062;BME280;2351;50.812;12.872;2023-08-20T14:37:07;98314.97;;;30.83;63.16
5062;BME280;2351;50.812;12.872;2023-08-20T14:39:40;98317.31;;;30.97;61.83
5062;BME280;2351;50.812;12.872;2023-08-20T14:42:13;98319.13;;;30.91;62.23
5062;BME280;2351;50.812;12.872;2023-08-20T14:44:46;98313.91;;;30.62;62.23
5062;BME280;2351;50.812;12.872;2023-08-20T14:47:18;98318.59;;;30.67;63.19
5062;BME280;2351;50.812;12.872;2023-08-20T14:49:50;98305.00;;;30.72;62.42
5062;BME280;2351;50.812;12.872;2023-08-20T14:52:22;98311.25;;;30.67;62.41
5062;BME280;2351;50.812;12.872;2023-08-20T14:54:54;98303.59;;;30.91;63.14
5062;BME280;2351;50.812;12.872;2023-08-20T14:57:26;98302.81;;;30.96;61.14
5062;BME280;2351;50.812;12.872;2023-08-20T14:59:59;98303.94;;;31.00;61.15
5062;BME280;2351;50.812;12.872;2023-08-20T15:02:31;98306.75;;;30.83;60.19
5062;BME280;2351;50.812;12.872;2023-08-20T15:05:04;98310.22;;;30.73;60.04
5062;BME280;2351;50.812;12.872;2023-08-20T15:07:37;98310.91;;;30.63;61.21
5062;BME280;2351;50.812;12.872;2023-08-20T15:10:10;98310.56;;;30.38;62.31
5062;BME280;2351;50.812;12.872;2023-08-20T15:12:42;98311.34;;;30.55;63.46
5062;BME280;2351;50.812;12.872;2023-08-20T15:15:20;98314.28;;;30.71;60.86
5062;BME280;2351;50.812;12.872;2023-08-20T15:17:53;98317.66;;;30.56;61.93
5062;BME280;2351;50.812;12.872;2023-08-20T15:20:25;98320.97;;;30.58;61.68
5062;BME280;2351;50.812;12.872;2023-08-20T15:22:58;98320.53;;;30.49;62.22
5062;BME280;2351;50.812;12.872;2023-08-20T15:25:29;98319.59;;;30.38;62.10
5062;BME280;2351;50.812;12.872;2023-08-20T15:28:01;98306.50;;;30.40;62.22
5062;BME280;2351;50.812;12.872;2023-08-20T15:30:35;98307.78;;;30.32;63.16
5062;BME280;2351;50.812;12.872;2023-08-20T15:33:07;98302.19;;;30.22;62.48
5062;BME280;2351;50.812;12.872;2023-08-20T15:35:38;98320.72;;;30.03;63.59
5062;BME280;2351;50.812;12.872;2023-08-20T15:38:10;98312.63;;;30.08;63.92
5062;BME280;2351;50.812;12.872;2023-08-20T15:40:42;98324.41;;;30.14;63.32
5062;BME280;2351;50.812;12.872;2023-08-20T15:43:13;98324.97;;;30.33;63.20
5062;BME280;2351;50.812;12.872;2023-08-20T15:45:47;98314.91;;;30.33;62.29
5062;BME280;2351;50.812;12.872;2023-08-20T15:48:19;98316.16;;;30.48;62.82
5062;BME280;2351;50.812;12.872;2023-08-20T15:50:51;98314.31;;;30.31;62.07
5062;BME280;2351;50.812;12.872;2023-08-20T15:53:24;98323.75;;;30.24;61.22
5062;BME280;2351;50.812;12.872;2023-08-20T15:55:57;98319.59;;;29.99;61.88
5062;BME280;2351;50.812;12.872;2023-08-20T15:58:30;98312.59;;;29.91;62.59
5062;BME280;2351;50.812;12.872;2023-08-20T16:01:04;98319.50;;;29.76;63.49
5062;BME280;2351;50.812;12.872;2023-08-20T16:03:37;98307.78;;;29.76;63.25
5062;BME280;2351;50.812;12.872;2023-08-20T16:06:10;98311.81;;;29.73;63.09
5062;BME280;2351;50.812;12.872;2023-08-20T16:08:41;98313.28;;;29.81;63.47
5062;BME280;2351;50.812;12.872;2023-08-20T16:11:14;98316.75;;;29.76;63.69
5062;BME280;2351;50.812;12.872;2023-08-20T16:13:46;98326.09;;;29.81;63.97
5062;BME280;2351;50.812;12.872;2023-08-20T16:16:20;98323.50;;;29.91;63.21
5062;BME280;2351;50.812;12.872;2023-08-20T16:18:51;98327.53;;;29.66;63.05
5062;BME280;2351;50.812;12.872;2023-08-20T16:21:23;98331.13;;;29.55;63.55
5062;BME280;2351;50.812;12.872;2023-08-20T16:23:55;98334.13;;;29.53;63.27
5062;BME280;2351;50.812;12.872;2023-08-20T16:26:26;98338.25;;;29.56;63.39
5062;BME280;2351;50.812;12.872;2023-08-20T16:28:58;98330.91;;;29.27;60.39
5062;BME280;2351;50.812;12.872;2023-08-20T16:31:32;98333.31;;;28.95;60.97
5062;BME280;2351;50.812;12.872;2023-08-20T16:34:03;98342.94;;;28.74;61.19
5062;BME280;2351;50.812;12.872;2023-08-20T16:36:35;98343.13;;;28.43;61.65
5062;BME280;2351;50.812;12.872;2023-08-20T16:39:07;98352.47;;;28.35;62.63
5062;BME280;2351;50.812;12.872;2023-08-20T16:41:39;98350.22;;;28.44;62.52
5062;BME280;2351;50.812;12.872;2023-08-20T16:44:11;98356.97;;;28.53;62.79
5062;BME280;2351;50.812;12.872;2023-08-20T16:46:50;98350.91;;;28.51;63.25
5062;BME280;2351;50.812;12.872;2023-08-20T16:49:22;98348.78;;;28.53;63.25
5062;BME280;2351;50.812;12.872;2023-08-20T16:51:53;98349.38;;;28.55;63.18
5062;BME280;2351;50.812;12.872;2023-08-20T16:54:25;98348.19;;;28.51;63.77
5062;BME280;2351;50.812;12.872;2023-08-20T16:56:57;98345.81;;;28.55;63.33
5062;BME280;2351;50.812;12.872;2023-08-20T16:59:28;98353.78;;;28.33;62.78
5062;BME280;2351;50.812;12.872;2023-08-20T17:02:02;98350.00;;;28.10;63.40
5062;BME280;2351;50.812;12.872;2023-08-20T17:04:34;98351.03;;;27.97;63.45
5062;BME280;2351;50.812;12.872;2023-08-20T17:07:06;98352.31;;;27.94;63.68
5062;BME280;2351;50.812;12.872;2023-08-20T17:09:38;98340.84;;;27.92;63.50
5062;BME280;2351;50.812;12.872;2023-08-20T17:12:10;98345.72;;;27.90;63.79
5062;BME280;2351;50.812;12.872;2023-08-20T17:14:42;98345.47;;;27.80;63.72
5062;BME280;2351;50.812;12.872;2023-08-20T17:17:15;98351.59;;;27.63;64.38
5062;BME280;2351;50.812;12.872;2023-08-20T17:19:47;98354.66;;;27.55;64.58
5062;BME280;2351;50.812;12.872;2023-08-20T17:22:19;98353.91;;;27.48;64.55
5062;BME280;2351;50.812;12.872;2023-08-20T17:24:51;98346.88;;;27.40;64.88
5062;BME280;2351;50.812;12.872;2023-08-20T17:27:22;98346.69;;;27.42;65.24
5062;BME280;2351;50.812;12.872;2023-08-20T17:29:54;98359.06;;;27.38;65.46
5062;BME280;2351;50.812;12.872;2023-08-20T17:32:30;98344.28;;;27.33;65.90
5062;BME280;2351;50.812;12.872;2023-08-20T17:35:02;98344.38;;;27.27;65.92
5062;BME280;2351;50.812;12.872;2023-08-20T17:37:34;98345.09;;;27.22;66.21
5062;BME280;2351;50.812;12.872;2023-08-20T17:40:07;98343.44;;;27.21;66.40
5062;BME280;2351;50.812;12.872;2023-08-20T17:42:40;98351.56;;;27.21;66.81
5062;BME280;2351;50.812;12.872;2023-08-20T17:45:12;98344.25;;;27.21;66.89
5062;BME280;2351;50.812;12.872;2023-08-20T17:47:45;98340.72;;;27.21;66.73
5062;BME280;2351;50.812;12.872;2023-08-20T17:50:18;98336.34;;;27.20;67.02
5062;BME280;2351;50.812;12.872;2023-08-20T17:52:50;98342.22;;;27.17;67.23
5062;BME280;2351;50.812;12.872;2023-08-20T17:55:22;98344.19;;;27.10;67.53
5062;BME280;2351;50.812;12.872;2023-08-20T17:57:54;98349.47;;;27.04;67.68
5062;BME280;2351;50.812;12.872;2023-08-20T18:00:26;98339.56;;;26.98;67.85
5062;BME280;2351;50.812;12.872;2023-08-20T18:02:59;98345.19;;;26.97;68.44
5062;BME280;2351;50.812;12.872;2023-08-20T18:05:31;98350.88;;;26.95;68.58
5062;BME280;2351;50.812;12.872;2023-08-20T18:08:03;98359.72;;;26.90;68.95
5062;BME280;2351;50.812;12.872;2023-08-20T18:10:35;98366.75;;;26.73;68.85
5062;BME280;2351;50.812;12.872;2023-08-20T18:13:07;98367.16;;;26.58;69.49
5062;BME280;2351;50.812;12.872;2023-08-20T18:15:39;98372.88;;;26.50;70.02
5062;BME280;2351;50.812;12.872;2023-08-20T18:18:12;98379.97;;;26.51;70.31
5062;BME280;2351;50.812;12.872;2023-08-20T18:20:45;98376.22;;;26.52;70.32
5062;BME280;2351;50.812;12.872;2023-08-20T18:23:17;98375.22;;;26.46;70.65
5062;BME280;2351;50.812;12.872;2023-08-20T18:25:49;98373.63;;;26.38;71.53
5062;BME280;2351;50.812;12.872;2023-08-20T18:28:22;98377.09;;;26.27;71.97
5062;BME280;2351;50.812;12.872;2023-08-20T18:30:54;98387.41;;;26.18;72.78
5062;BME280;2351;50.812;12.872;2023-08-20T18:33:27;98384.50;;;26.13;72.88
5062;BME280;2351;50.812;12.872;2023-08-20T18:36:01;98391.84;;;26.12;73.06
5062;BME280;2351;50.812;12.872;2023-08-20T18:38:40;98385.94;;;26.15;73.28
5062;BME280;2351;50.812;12.872;2023-08-20T18:41:12;98385.13;;;26.15;73.48
5062;BME280;2351;50.812;12.872;2023-08-20T18:43:45;98384.50;;;26.13;73.09
5062;BME280;2351;50.812;12.872;2023-08-20T18:46:16;98393.13;;;26.03;73.59
5062;BME280;2351;50.812;12.872;2023-08-20T18:51:25;98399.88;;;25.94;74.45
5062;BME280;2351;50.812;12.872;2023-08-20T18:53:56;98404.28;;;25.88;74.60
5062;BME280;2351;50.812;12.872;2023-08-20T18:56:28;98391.22;;;25.78;75.01
5062;BME280;2351;50.812;12.872;2023-08-20T18:59:00;98405.66;;;25.72;75.47
5062;BME280;2351;50.812;12.872;2023-08-20T19:01:31;98401.13;;;25.66;75.69
5062;BME280;2351;50.812;12.872;2023-08-20T19:04:04;98409.69;;;25.63;76.02
5062;BME280;2351;50.812;12.872;2023-08-20T19:06:37;98409.31;;;25.59;76.63
5062;BME280;2351;50.812;12.872;2023-08-20T19:09:08;98406.44;;;25.54;76.55
5062;BME280;2351;50.812;12.872;2023-08-20T19:11:40;98411.44;;;25.50;77.34
5062;BME280;2351;50.812;12.872;2023-08-20T19:14:12;98411.47;;;25.44;77.63
5062;BME280;2351;50.812;12.872;2023-08-20T19:16:43;98413.75;;;25.40;77.79
5062;BME280;2351;50.812;12.872;2023-08-20T19:19:15;98409.81;;;25.36;78.27
5062;BME280;2351;50.812;12.872;2023-08-20T19:21:48;98419.00;;;25.35;78.70
5062;BME280;2351;50.812;12.872;2023-08-20T19:24:20;98412.78;;;25.27;79.06
5062;BME280;2351;50.812;12.872;2023-08-20T19:26:54;98423.44;;;25.22;79.85
5062;BME280;2351;50.812;12.872;2023-08-20T19:29:25;98426.19;;;25.16;80.30
5062;BME280;2351;50.812;12.872;2023-08-20T19:31:57;98428.72;;;25.10;80.54
5062;BME280;2351;50.812;12.872;2023-08-20T19:34:30;98434.31;;;25.09;80.64
5062;BME280;2351;50.812;12.872;2023-08-20T19:37:03;98432.47;;;25.09;81.07
5062;BME280;2351;50.812;12.872;2023-08-20T19:39:36;98439.53;;;25.10;81.17
5062;BME280;2351;50.812;12.872;2023-08-20T19:42:08;98437.88;;;25.09;81.60
5062;BME280;2351;50.812;12.872;2023-08-20T19:44:40;98442.47;;;25.02;82.01
5062;BME280;2351;50.812;12.872;2023-08-20T19:47:11;98457.69;;;24.96;82.06
5062;BME280;2351;50.812;12.872;2023-08-20T19:49:43;98458.97;;;24.87;82.20
5062;BME280;2351;50.812;12.872;2023-08-20T19:52:19;98461.06;;;24.85;82.61
5062;BME280;2351;50.812;12.872;2023-08-20T19:54:51;98462.09;;;24.84;83.13
5062;BME280;2351;50.812;12.872;2023-08-20T19:57:22;98462.09;;;24.84;83.08
5062;BME280;2351;50.812;12.872;2023-08-20T19:59:54;98462.09;;;24.84;83.49
5062;BME280;2351;50.812;12.872;2023-08-20T20:02:26;98458.34;;;24.85;83.62
5062;BME280;2351;50.812;12.872;2023-08-20T20:04:57;98463.34;;;24.81;84.00
5062;BME280;2351;50.812;12.872;2023-08-20T20:07:30;98470.03;;;24.79;84.31
5062;BME280;2351;50.812;12.872;2023-08-20T20:10:03;98466.72;;;24.77;84.24
5062;BME280;2351;50.812;12.872;2023-08-20T20:12:35;98470.03;;;24.72;84.50
5062;BME280;2351;50.812;12.872;2023-08-20T20:15:08;98472.53;;;24.67;84.88